sensor_id;sensor_type;location;lat;lon;timestamp;P1;durP1;ratioP1;P2;durP2;ratioP2
1569;SDS011;778;50.120;8.698;2023-06-10T00:00:49;10.90;;;10.00;;
1569;SDS011;778;50.120;8.698;2023-06-10T00:03:19;10.67;;;9.57;;
1569;SDS011;778;50.120;8.698;2023-06-10T00:05:50;11.70;;;10.50;;
1569;SDS011;778;50.120;8.698;2023-06-10T00:08:18;11.40;;;10.40;;
1569;SDS011;778;50.120;8.698;2023-06-10T00:10:47;12.33;;;11.17;;
1569;SDS011;778;50.120;8.698;2023-06-10T00:13:15;11.97;;;10.97;;
1569;SDS011;778;50.120;8.698;2023-06-10T00:15:44;11.73;;;10.60;;
1569;SDS011;778;50.120;8.698;2023-06-10T00:18:12;10.70;;;9.70;;
1569;SDS011;778;50.120;8.698;2023-06-10T00:20:43;10.67;;;9.53;;
1569;SDS011;778;50.120;8.698;2023-06-10T00:23:12;12.57;;;11.57;;
1569;SDS011;778;50.120;8.698;2023-06-10T00:25:40;11.60;;;10.50;;
1569;SDS011;778;50.120;8.698;2023-06-10T00:28:08;11.67;;;10.50;;
1569;SDS011;778;50.120;8.698;2023-06-10T00:30:37;11.20;;;10.13;;
1569;SDS011;778;50.120;8.698;2023-06-10T00:33:09;10.80;;;9.70;;
1569;SDS011;778;50.120;8.698;2023-06-10T00:35:37;13.13;;;10.57;;
1569;SDS011;778;50.120;8.698;2023-06-10T00:38:07;12.03;;;10.93;;
1569;SDS011;778;50.120;8.698;2023-06-10T00:40:38;12.60;;;11.53;;
1569;SDS011;778;50.120;8.698;2023-06-10T00:43:07;11.13;;;10.33;;
1569;SDS011;778;50.120;8.698;2023-06-10T00:45:36;11.93;;;10.90;;
1569;SDS011;778;50.120;8.698;2023-06-10T00:48:04;11.73;;;10.57;;
1569;SDS011;778;50.120;8.698;2023-06-10T00:50:34;11.07;;;10.17;;
1569;SDS011;778;50.120;8.698;2023-06-10T00:53:05;10.37;;;9.57;;
1569;SDS011;778;50.120;8.698;2023-06-10T00:55:36;10.93;;;9.87;;
1569;SDS011;778;50.120;8.698;2023-06-10T00:58:05;12.20;;;11.20;;
1569;SDS011;778;50.120;8.698;2023-06-10T01:00:33;11.83;;;10.77;;
1569;SDS011;778;50.120;8.698;2023-06-10T01:03:02;11.47;;;10.53;;
1569;SDS011;778;50.120;8.698;2023-06-10T01:05:34;12.73;;;10.87;;
1569;SDS011;778;50.120;8.698;2023-06-10T01:08:06;11.00;;;10.03;;
1569;SDS011;778;50.120;8.698;2023-06-10T01:10:46;12.10;;;10.93;;
1569;SDS011;778;50.120;8.698;2023-06-10T01:13:20;12.27;;;10.63;;
1569;SDS011;778;50.120;8.698;2023-06-10T01:15:51;11.13;;;10.03;;
1569;SDS011;778;50.120;8.698;2023-06-10T01:18:19;11.00;;;10.10;;
1569;SDS011;778;50.120;8.698;2023-06-10T01:20:48;10.60;;;9.73;;
1569;SDS011;778;50.120;8.698;2023-06-10T01:23:19;10.80;;;9.90;;
1569;SDS011;778;50.120;8.698;2023-06-10T01:25:49;11.80;;;10.50;;
1569;SDS011;778;50.120;8.698;2023-06-10T01:28:24;10.80;;;9.80;;
1569;SDS011;778;50.120;8.698;2023-06-10T01:31:00;10.20;;;9.40;;
1569;SDS011;778;50.120;8.698;2023-06-10T01:33:39;10.60;;;9.70;;
1569;SDS011;778;50.120;8.698;2023-06-10T01:36:11;10.97;;;10.00;;
1569;SDS011;778;50.120;8.698;2023-06-10T01:38:43;11.27;;;10.40;;
1569;SDS011;778;50.120;8.698;2023-06-10T01:41:13;11.20;;;10.30;;
1569;SDS011;778;50.120;8.698;2023-06-10T01:43:45;11.03;;;10.07;;
1569;SDS011;778;50.120;8.698;2023-06-10T01:46:14;10.80;;;9.90;;
1569;SDS011;778;50.120;8.698;2023-06-10T01:48:46;11.10;;;10.20;;
1569;SDS011;778;50.120;8.698;2023-06-10T01:51:15;10.40;;;9.40;;
1569;SDS011;778;50.120;8.698;2023-06-10T01:53:44;12.10;;;9.73;;
1569;SDS011;778;50.120;8.698;2023-06-10T01:56:13;10.47;;;9.67;;
1569;SDS011;778;50.120;8.698;2023-06-10T01:58:44;10.03;;;9.13;;
1569;SDS011;778;50.120;8.698;2023-06-10T02:01:14;11.33;;;10.27;;
1569;SDS011;778;50.120;8.698;2023-06-10T02:03:42;10.17;;;9.37;;
1569;SDS011;778;50.120;8.698;2023-06-10T02:06:11;11.03;;;9.87;;
1569;SDS011;778;50.120;8.698;2023-06-10T02:08:39;11.00;;;10.07;;
1569;SDS011;778;50.120;8.698;2023-06-10T02:11:09;10.53;;;9.63;;
1569;SDS011;778;50.120;8.698;2023-06-10T02:13:37;10.00;;;9.00;;
1569;SDS011;778;50.120;8.698;2023-06-10T02:16:06;9.27;;;8.53;;
1569;SDS011;778;50.120;8.698;2023-06-10T02:18:35;10.27;;;9.47;;
1569;SDS011;778;50.120;8.698;2023-06-10T02:21:07;11.70;;;10.43;;
1569;SDS011;778;50.120;8.698;2023-06-10T02:23:36;9.67;;;8.73;;
1569;SDS011;778;50.120;8.698;2023-06-10T02:26:04;9.80;;;9.00;;
1569;SDS011;778;50.120;8.698;2023-06-10T02:28:34;9.50;;;8.80;;
1569;SDS011;778;50.120;8.698;2023-06-10T02:31:02;10.40;;;9.50;;
1569;SDS011;778;50.120;8.698;2023-06-10T02:33:31;10.73;;;9.60;;
1569;SDS011;778;50.120;8.698;2023-06-10T02:36:00;10.20;;;9.40;;
1569;SDS011;778;50.120;8.698;2023-06-10T02:38:30;10.07;;;9.23;;
1569;SDS011;778;50.120;8.698;2023-06-10T02:40:59;10.20;;;9.30;;
1569;SDS011;778;50.120;8.698;2023-06-10T02:43:28;10.00;;;9.20;;
1569;SDS011;778;50.120;8.698;2023-06-10T02:45:57;10.43;;;9.57;;
1569;SDS011;778;50.120;8.698;2023-06-10T02:48:27;10.13;;;9.27;;
1569;SDS011;778;50.120;8.698;2023-06-10T02:50:56;10.60;;;9.70;;
1569;SDS011;778;50.120;8.698;2023-06-10T02:53:31;9.90;;;9.00;;
1569;SDS011;778;50.120;8.698;2023-06-10T02:56:05;10.63;;;9.70;;
1569;SDS011;778;50.120;8.698;2023-06-10T02:58:34;10.17;;;9.37;;
1569;SDS011;778;50.120;8.698;2023-06-10T03:01:05;9.60;;;8.80;;
1569;SDS011;778;50.120;8.698;2023-06-10T03:03:45;9.57;;;8.87;;
1569;SDS011;778;50.120;8.698;2023-06-10T03:06:15;9.73;;;9.03;;
1569;SDS011;778;50.120;8.698;2023-06-10T03:08:44;9.63;;;8.90;;
1569;SDS011;778;50.120;8.698;2023-06-10T03:11:16;10.20;;;9.30;;
1569;SDS011;778;50.120;8.698;2023-06-10T03:13:47;10.03;;;9.03;;
1569;SDS011;778;50.120;8.698;2023-06-10T03:16:19;10.73;;;9.60;;
1569;SDS011;778;50.120;8.698;2023-06-10T03:18:48;10.43;;;9.53;;
1569;SDS011;778;50.120;8.698;2023-06-10T03:21:17;12.07;;;8.83;;
1569;SDS011;778;50.120;8.698;2023-06-10T03:23:45;10.00;;;9.20;;
1569;SDS011;778;50.120;8.698;2023-06-10T03:26:14;10.17;;;9.27;;
1569;SDS011;778;50.120;8.698;2023-06-10T03:28:46;10.37;;;9.47;;
1569;SDS011;778;50.120;8.698;2023-06-10T03:31:14;10.67;;;9.47;;
1569;SDS011;778;50.120;8.698;2023-06-10T03:33:45;10.10;;;9.30;;
1569;SDS011;778;50.120;8.698;2023-06-10T03:36:14;8.70;;;7.97;;
1569;SDS011;778;50.120;8.698;2023-06-10T03:38:42;9.53;;;8.83;;
1569;SDS011;778;50.120;8.698;2023-06-10T03:41:11;10.30;;;9.40;;
1569;SDS011;778;50.120;8.698;2023-06-10T03:43:41;9.63;;;8.80;;
1569;SDS011;778;50.120;8.698;2023-06-10T03:46:11;9.80;;;9.00;;
1569;SDS011;778;50.120;8.698;2023-06-10T03:48:40;9.60;;;8.80;;
1569;SDS011;778;50.120;8.698;2023-06-10T03:51:10;10.33;;;9.23;;
1569;SDS011;778;50.120;8.698;2023-06-10T03:53:39;9.70;;;8.60;;
1569;SDS011;778;50.120;8.698;2023-06-10T03:56:07;9.90;;;9.10;;
1569;SDS011;778;50.120;8.698;2023-06-10T03:58:35;8.63;;;7.93;;
1569;SDS011;778;50.120;8.698;2023-06-10T04:01:05;8.83;;;8.13;;
1569;SDS011;778;50.120;8.698;2023-06-10T04:03:34;11.07;;;8.60;;
1569;SDS011;778;50.120;8.698;2023-06-10T04:06:03;10.50;;;9.30;;
1569;SDS011;778;50.120;8.698;2023-06-10T04:08:33;9.10;;;8.40;;
1569;SDS011;778;50.120;8.698;2023-06-10T04:11:02;8.63;;;7.93;;
1569;SDS011;778;50.120;8.698;2023-06-10T04:13:31;10.60;;;9.60;;
1569;SDS011;778;50.120;8.698;2023-06-10T04:15:59;8.93;;;8.23;;
1569;SDS011;778;50.120;8.698;2023-06-10T04:18:28;9.63;;;8.57;;
1569;SDS011;778;50.120;8.698;2023-06-10T04:21:01;8.83;;;8.10;;
1569;SDS011;778;50.120;8.698;2023-06-10T04:23:33;9.13;;;7.77;;
1569;SDS011;778;50.120;8.698;2023-06-10T04:26:03;9.47;;;8.67;;
1569;SDS011;778;50.120;8.698;2023-06-10T04:28:32;8.53;;;7.77;;
1569;SDS011;778;50.120;8.698;2023-06-10T04:31:00;9.93;;;8.93;;
1569;SDS011;778;50.120;8.698;2023-06-10T04:33:30;8.87;;;7.90;;
1569;SDS011;778;50.120;8.698;2023-06-10T04:36:01;9.60;;;8.67;;
1569;SDS011;778;50.120;8.698;2023-06-10T04:38:30;8.83;;;8.00;;
1569;SDS011;778;50.120;8.698;2023-06-10T04:41:00;9.20;;;8.50;;
1569;SDS011;778;50.120;8.698;2023-06-10T04:43:32;11.17;;;8.70;;
1569;SDS011;778;50.120;8.698;2023-06-10T04:46:00;8.90;;;8.10;;
1569;SDS011;778;50.120;8.698;2023-06-10T04:48:30;9.33;;;8.53;;
1569;SDS011;778;50.120;8.698;2023-06-10T04:51:02;10.03;;;8.63;;
1569;SDS011;778;50.120;8.698;2023-06-10T04:53:33;8.77;;;7.97;;
1569;SDS011;778;50.120;8.698;2023-06-10T04:56:01;10.47;;;9.00;;
1569;SDS011;778;50.120;8.698;2023-06-10T04:58:30;9.40;;;8.50;;
1569;SDS011;778;50.120;8.698;2023-06-10T05:00:58;8.30;;;7.70;;
1569;SDS011;778;50.120;8.698;2023-06-10T05:03:28;7.93;;;7.27;;
1569;SDS011;778;50.120;8.698;2023-06-10T05:05:57;10.17;;;9.17;;
1569;SDS011;778;50.120;8.698;2023-06-10T05:08:25;8.90;;;8.17;;
1569;SDS011;778;50.120;8.698;2023-06-10T05:10:55;9.10;;;8.20;;
1569;SDS011;778;50.120;8.698;2023-06-10T05:13:23;8.40;;;7.60;;
1569;SDS011;778;50.120;8.698;2023-06-10T05:15:51;8.70;;;7.90;;
1569;SDS011;778;50.120;8.698;2023-06-10T05:18:20;8.13;;;7.40;;
1569;SDS011;778;50.120;8.698;2023-06-10T05:20:48;8.67;;;7.97;;
1569;SDS011;778;50.120;8.698;2023-06-10T05:23:17;9.23;;;7.67;;
1569;SDS011;778;50.120;8.698;2023-06-10T05:25:46;8.20;;;7.60;;
1569;SDS011;778;50.120;8.698;2023-06-10T05:28:15;8.20;;;7.57;;
1569;SDS011;778;50.120;8.698;2023-06-10T05:30:44;9.53;;;8.50;;
1569;SDS011;778;50.120;8.698;2023-06-10T05:33:14;8.43;;;7.70;;
1569;SDS011;778;50.120;8.698;2023-06-10T05:35:43;8.40;;;7.43;;
1569;SDS011;778;50.120;8.698;2023-06-10T05:38:12;8.60;;;7.90;;
1569;SDS011;778;50.120;8.698;2023-06-10T05:40:40;8.30;;;7.50;;
1569;SDS011;778;50.120;8.698;2023-06-10T05:43:08;8.60;;;8.00;;
1569;SDS011;778;50.120;8.698;2023-06-10T05:45:39;8.90;;;8.10;;
1569;SDS011;778;50.120;8.698;2023-06-10T05:48:07;7.70;;;7.10;;
1569;SDS011;778;50.120;8.698;2023-06-10T05:50:36;8.70;;;7.90;;
1569;SDS011;778;50.120;8.698;2023-06-10T05:53:06;9.00;;;7.43;;
1569;SDS011;778;50.120;8.698;2023-06-10T05:55:41;8.17;;;7.53;;
1569;SDS011;778;50.120;8.698;2023-06-10T05:58:10;7.77;;;7.17;;
1569;SDS011;778;50.120;8.698;2023-06-10T06:00:40;7.97;;;7.17;;
1569;SDS011;778;50.120;8.698;2023-06-10T06:03:10;8.40;;;7.70;;
1569;SDS011;778;50.120;8.698;2023-06-10T06:05:40;8.00;;;7.30;;
1569;SDS011;778;50.120;8.698;2023-06-10T06:08:09;7.87;;;7.20;;
1569;SDS011;778;50.120;8.698;2023-06-10T06:10:39;8.33;;;7.63;;
1569;SDS011;778;50.120;8.698;2023-06-10T06:13:08;11.70;;;8.13;;
1569;SDS011;778;50.120;8.698;2023-06-10T06:15:36;8.70;;;7.30;;
1569;SDS011;778;50.120;8.698;2023-06-10T06:18:06;8.20;;;7.60;;
1569;SDS011;778;50.120;8.698;2023-06-10T06:20:34;8.30;;;7.60;;
1569;SDS011;778;50.120;8.698;2023-06-10T06:23:03;9.43;;;8.50;;
1569;SDS011;778;50.120;8.698;2023-06-10T06:25:31;10.90;;;8.10;;
1569;SDS011;778;50.120;8.698;2023-06-10T06:28:00;7.93;;;7.13;;
1569;SDS011;778;50.120;8.698;2023-06-10T06:30:28;8.57;;;7.60;;
1569;SDS011;778;50.120;8.698;2023-06-10T06:32:56;9.30;;;8.47;;
1569;SDS011;778;50.120;8.698;2023-06-10T06:35:26;9.10;;;8.40;;
1569;SDS011;778;50.120;8.698;2023-06-10T06:37:55;8.03;;;7.43;;
1569;SDS011;778;50.120;8.698;2023-06-10T06:40:27;8.97;;;8.07;;
1569;SDS011;778;50.120;8.698;2023-06-10T06:42:55;8.70;;;8.07;;
1569;SDS011;778;50.120;8.698;2023-06-10T06:45:36;8.57;;;7.87;;
1569;SDS011;778;50.120;8.698;2023-06-10T06:48:04;8.37;;;7.60;;
1569;SDS011;778;50.120;8.698;2023-06-10T06:50:34;8.60;;;7.87;;
1569;SDS011;778;50.120;8.698;2023-06-10T06:53:03;7.93;;;7.23;;
1569;SDS011;778;50.120;8.698;2023-06-10T06:55:31;8.47;;;7.60;;
1569;SDS011;778;50.120;8.698;2023-06-10T06:58:00;8.50;;;7.80;;
1569;SDS011;778;50.120;8.698;2023-06-10T07:00:30;12.37;;;8.40;;
1569;SDS011;778;50.120;8.698;2023-06-10T07:02:59;9.20;;;8.30;;
1569;SDS011;778;50.120;8.698;2023-06-10T07:05:27;9.10;;;8.20;;
1569;SDS011;778;50.120;8.698;2023-06-10T07:07:58;8.10;;;7.50;;
1569;SDS011;778;50.120;8.698;2023-06-10T07:10:28;8.00;;;7.40;;
1569;SDS011;778;50.120;8.698;2023-06-10T07:12:56;10.13;;;7.30;;
1569;SDS011;778;50.120;8.698;2023-06-10T07:15:25;9.03;;;8.20;;
1569;SDS011;778;50.120;8.698;2023-06-10T07:17:54;7.77;;;7.20;;
1569;SDS011;778;50.120;8.698;2023-06-10T07:20:22;21.70;;;7.90;;
1569;SDS011;778;50.120;8.698;2023-06-10T07:22:51;8.80;;;8.07;;
1569;SDS011;778;50.120;8.698;2023-06-10T07:25:21;7.83;;;7.23;;
1569;SDS011;778;50.120;8.698;2023-06-10T07:27:49;10.27;;;7.60;;
1569;SDS011;778;50.120;8.698;2023-06-10T07:30:17;7.70;;;7.10;;
1569;SDS011;778;50.120;8.698;2023-06-10T07:32:46;10.87;;;7.73;;
1569;SDS011;778;50.120;8.698;2023-06-10T07:35:15;8.07;;;7.23;;
1569;SDS011;778;50.120;8.698;2023-06-10T07:37:43;8.37;;;7.47;;
1569;SDS011;778;50.120;8.698;2023-06-10T07:40:12;8.97;;;8.07;;
1569;SDS011;778;50.120;8.698;2023-06-10T07:42:42;11.10;;;7.77;;
1569;SDS011;778;50.120;8.698;2023-06-10T07:45:11;8.67;;;7.97;;
1569;SDS011;778;50.120;8.698;2023-06-10T07:47:40;9.10;;;8.40;;
1569;SDS011;778;50.120;8.698;2023-06-10T07:50:09;8.20;;;7.60;;
1569;SDS011;778;50.120;8.698;2023-06-10T07:52:38;8.57;;;7.97;;
1569;SDS011;778;50.120;8.698;2023-06-10T07:55:07;8.23;;;7.47;;
1569;SDS011;778;50.120;8.698;2023-06-10T07:57:47;7.83;;;7.33;;
1569;SDS011;778;50.120;8.698;2023-06-10T08:00:16;8.67;;;8.00;;
1569;SDS011;778;50.120;8.698;2023-06-10T08:02:46;8.27;;;7.60;;
1569;SDS011;778;50.120;8.698;2023-06-10T08:05:15;8.83;;;8.03;;
1569;SDS011;778;50.120;8.698;2023-06-10T08:07:44;8.50;;;7.83;;
1569;SDS011;778;50.120;8.698;2023-06-10T08:10:13;8.90;;;8.20;;
1569;SDS011;778;50.120;8.698;2023-06-10T08:12:42;11.47;;;8.10;;
1569;SDS011;778;50.120;8.698;2023-06-10T08:15:12;9.57;;;8.67;;
1569;SDS011;778;50.120;8.698;2023-06-10T08:17:41;9.27;;;8.40;;
1569;SDS011;778;50.120;8.698;2023-06-10T08:20:11;9.20;;;8.50;;
1569;SDS011;778;50.120;8.698;2023-06-10T08:22:40;8.77;;;7.90;;
1569;SDS011;778;50.120;8.698;2023-06-10T08:25:09;7.70;;;7.10;;
1569;SDS011;778;50.120;8.698;2023-06-10T08:27:38;8.33;;;7.63;;
1569;SDS011;778;50.120;8.698;2023-06-10T08:30:07;8.77;;;8.07;;
1569;SDS011;778;50.120;8.698;2023-06-10T08:32:38;8.43;;;7.73;;
1569;SDS011;778;50.120;8.698;2023-06-10T08:35:07;9.10;;;8.40;;
1569;SDS011;778;50.120;8.698;2023-06-10T08:37:36;8.30;;;7.50;;
1569;SDS011;778;50.120;8.698;2023-06-10T08:40:06;8.57;;;7.77;;
1569;SDS011;778;50.120;8.698;2023-06-10T08:42:37;9.40;;;8.40;;
1569;SDS011;778;50.120;8.698;2023-06-10T08:45:11;9.23;;;8.53;;
1569;SDS011;778;50.120;8.698;2023-06-10T08:47:46;7.73;;;7.23;;
1569;SDS011;778;50.120;8.698;2023-06-10T08:50:18;9.70;;;8.60;;
1569;SDS011;778;50.120;8.698;2023-06-10T08:52:48;9.73;;;8.43;;
1569;SDS011;778;50.120;8.698;2023-06-10T08:55:23;8.80;;;7.50;;
1569;SDS011;778;50.120;8.698;2023-06-10T08:57:58;8.80;;;8.00;;
1569;SDS011;778;50.120;8.698;2023-06-10T09:00:28;8.20;;;7.50;;
1569;SDS011;778;50.120;8.698;2023-06-10T09:02:59;8.27;;;7.50;;
1569;SDS011;778;50.120;8.698;2023-06-10T09:05:32;7.83;;;7.23;;
1569;SDS011;778;50.120;8.698;2023-06-10T09:08:03;8.77;;;8.17;;
1569;SDS011;778;50.120;8.698;2023-06-10T09:10:32;8.50;;;7.83;;
1569;SDS011;778;50.120;8.698;2023-06-10T09:13:01;8.13;;;7.47;;
1569;SDS011;778;50.120;8.698;2023-06-10T09:15:29;8.77;;;8.17;;
1569;SDS011;778;50.120;8.698;2023-06-10T09:18:00;7.53;;;7.07;;
1569;SDS011;778;50.120;8.698;2023-06-10T09:20:29;7.50;;;6.90;;
1569;SDS011;778;50.120;8.698;2023-06-10T09:22:58;9.77;;;8.00;;
1569;SDS011;778;50.120;8.698;2023-06-10T09:25:34;8.07;;;7.47;;
1569;SDS011;778;50.120;8.698;2023-06-10T09:28:04;8.03;;;7.50;;
1569;SDS011;778;50.120;8.698;2023-06-10T09:30:36;7.40;;;6.80;;
1569;SDS011;778;50.120;8.698;2023-06-10T09:33:11;7.80;;;7.07;;
1569;SDS011;778;50.120;8.698;2023-06-10T09:35:44;8.73;;;8.00;;
1569;SDS011;778;50.120;8.698;2023-06-10T09:38:14;8.23;;;7.60;;
1569;SDS011;778;50.120;8.698;2023-06-10T09:40:50;8.03;;;7.53;;
1569;SDS011;778;50.120;8.698;2023-06-10T09:43:19;10.10;;;7.70;;
1569;SDS011;778;50.120;8.698;2023-06-10T09:45:48;8.03;;;7.43;;
1569;SDS011;778;50.120;8.698;2023-06-10T09:48:21;8.53;;;7.50;;
1569;SDS011;778;50.120;8.698;2023-06-10T09:50:51;7.77;;;7.17;;
1569;SDS011;778;50.120;8.698;2023-06-10T09:53:20;7.00;;;6.50;;
1569;SDS011;778;50.120;8.698;2023-06-10T09:55:49;9.20;;;8.13;;
1569;SDS011;778;50.120;8.698;2023-06-10T09:58:17;8.83;;;8.00;;
1569;SDS011;778;50.120;8.698;2023-06-10T10:00:48;8.57;;;7.87;;
1569;SDS011;778;50.120;8.698;2023-06-10T10:03:23;8.60;;;7.80;;
1569;SDS011;778;50.120;8.698;2023-06-10T10:05:57;8.47;;;7.80;;
1569;SDS011;778;50.120;8.698;2023-06-10T10:08:27;9.13;;;8.10;;
1569;SDS011;778;50.120;8.698;2023-06-10T10:10:57;8.10;;;7.50;;
1569;SDS011;778;50.120;8.698;2023-06-10T10:13:27;8.80;;;8.00;;
1569;SDS011;778;50.120;8.698;2023-06-10T10:15:56;7.83;;;7.20;;
1569;SDS011;778;50.120;8.698;2023-06-10T10:18:27;8.20;;;7.40;;
1569;SDS011;778;50.120;8.698;2023-06-10T10:21:00;7.60;;;6.97;;
1569;SDS011;778;50.120;8.698;2023-06-10T10:23:43;8.37;;;7.63;;
1569;SDS011;778;50.120;8.698;2023-06-10T10:26:16;8.27;;;6.50;;
1569;SDS011;778;50.120;8.698;2023-06-10T10:28:46;7.47;;;6.87;;
1569;SDS011;778;50.120;8.698;2023-06-10T10:31:21;8.03;;;7.07;;
1569;SDS011;778;50.120;8.698;2023-06-10T10:33:54;7.77;;;7.10;;
1569;SDS011;778;50.120;8.698;2023-06-10T10:36:26;8.00;;;7.20;;
1569;SDS011;778;50.120;8.698;2023-06-10T10:38:55;7.30;;;6.80;;
1569;SDS011;778;50.120;8.698;2023-06-10T10:41:24;7.63;;;7.03;;
1569;SDS011;778;50.120;8.698;2023-06-10T10:43:55;5.93;;;5.53;;
1569;SDS011;778;50.120;8.698;2023-06-10T10:46:26;7.43;;;6.73;;
1569;SDS011;778;50.120;8.698;2023-06-10T10:49:01;6.90;;;6.30;;
1569;SDS011;778;50.120;8.698;2023-06-10T10:51:31;6.80;;;6.30;;
1569;SDS011;778;50.120;8.698;2023-06-10T10:54:10;8.50;;;6.70;;
1569;SDS011;778;50.120;8.698;2023-06-10T10:56:44;7.33;;;6.63;;
1569;SDS011;778;50.120;8.698;2023-06-10T10:59:45;7.40;;;6.40;;
1569;SDS011;778;50.120;8.698;2023-06-10T11:02:19;10.50;;;6.57;;
1569;SDS011;778;50.120;8.698;2023-06-10T11:05:07;7.00;;;6.40;;
1569;SDS011;778;50.120;8.698;2023-06-10T11:07:37;6.90;;;6.40;;
1569;SDS011;778;50.120;8.698;2023-06-10T11:10:09;7.33;;;6.83;;
1569;SDS011;778;50.120;8.698;2023-06-10T11:12:49;6.93;;;6.43;;
1569;SDS011;778;50.120;8.698;2023-06-10T11:15:20;7.00;;;6.30;;
1569;SDS011;778;50.120;8.698;2023-06-10T11:20:43;7.80;;;6.00;;
1569;SDS011;778;50.120;8.698;2023-06-10T11:23:24;6.37;;;5.87;;
1569;SDS011;778;50.120;8.698;2023-06-10T11:26:13;6.77;;;6.17;;
1569;SDS011;778;50.120;8.698;2023-06-10T11:31:40;7.07;;;6.57;;
1569;SDS011;778;50.120;8.698;2023-06-10T11:34:10;15.13;;;6.67;;
1569;SDS011;778;50.120;8.698;2023-06-10T11:36:43;6.50;;;6.00;;
1569;SDS011;778;50.120;8.698;2023-06-10T11:39:12;7.63;;;6.83;;
1569;SDS011;778;50.120;8.698;2023-06-10T11:41:41;7.00;;;6.37;;
1569;SDS011;778;50.120;8.698;2023-06-10T11:44:11;6.57;;;5.93;;
1569;SDS011;778;50.120;8.698;2023-06-10T11:46:45;6.20;;;5.70;;
1569;SDS011;778;50.120;8.698;2023-06-10T11:49:16;7.03;;;6.43;;
1569;SDS011;778;50.120;8.698;2023-06-10T11:51:49;6.50;;;6.00;;
1569;SDS011;778;50.120;8.698;2023-06-10T11:54:18;6.90;;;6.37;;
1569;SDS011;778;50.120;8.698;2023-06-10T11:56:48;6.87;;;6.37;;
1569;SDS011;778;50.120;8.698;2023-06-10T11:59:18;6.33;;;5.93;;
1569;SDS011;778;50.120;8.698;2023-06-10T12:01:52;7.73;;;7.07;;
1569;SDS011;778;50.120;8.698;2023-06-10T12:04:20;6.97;;;6.40;;
1569;SDS011;778;50.120;8.698;2023-06-10T12:06:51;7.83;;;7.13;;
1569;SDS011;778;50.120;8.698;2023-06-10T12:09:22;6.37;;;5.87;;
1569;SDS011;778;50.120;8.698;2023-06-10T12:11:54;9.87;;;6.50;;
1569;SDS011;778;50.120;8.698;2023-06-10T12:17:35;7.70;;;7.13;;
1569;SDS011;778;50.120;8.698;2023-06-10T12:20:05;6.80;;;6.27;;
1569;SDS011;778;50.120;8.698;2023-06-10T12:22:37;6.50;;;6.00;;
1569;SDS011;778;50.120;8.698;2023-06-10T12:25:07;9.50;;;6.87;;
1569;SDS011;778;50.120;8.698;2023-06-10T12:27:38;7.47;;;6.57;;
1569;SDS011;778;50.120;8.698;2023-06-10T12:30:09;8.10;;;7.50;;
1569;SDS011;778;50.120;8.698;2023-06-10T12:32:38;7.00;;;6.43;;
1569;SDS011;778;50.120;8.698;2023-06-10T12:35:09;6.77;;;6.17;;
1569;SDS011;778;50.120;8.698;2023-06-10T12:37:42;7.67;;;7.07;;
1569;SDS011;778;50.120;8.698;2023-06-10T12:40:11;7.80;;;7.20;;
1569;SDS011;778;50.120;8.698;2023-06-10T12:42:40;7.70;;;7.10;;
1569;SDS011;778;50.120;8.698;2023-06-10T12:45:10;6.27;;;5.87;;
1569;SDS011;778;50.120;8.698;2023-06-10T12:47:40;5.70;;;5.30;;
1569;SDS011;778;50.120;8.698;2023-06-10T12:50:09;6.67;;;5.77;;
1569;SDS011;778;50.120;8.698;2023-06-10T12:52:39;6.43;;;5.83;;
1569;SDS011;778;50.120;8.698;2023-06-10T12:55:09;7.03;;;6.43;;
1569;SDS011;778;50.120;8.698;2023-06-10T12:57:47;8.13;;;6.60;;
1569;SDS011;778;50.120;8.698;2023-06-10T13:00:17;8.60;;;6.00;;
1569;SDS011;778;50.120;8.698;2023-06-10T13:02:48;6.50;;;5.90;;
1569;SDS011;778;50.120;8.698;2023-06-10T13:05:17;6.83;;;6.20;;
1569;SDS011;778;50.120;8.698;2023-06-10T13:07:48;8.67;;;6.70;;
1569;SDS011;778;50.120;8.698;2023-06-10T13:10:17;6.37;;;5.80;;
1569;SDS011;778;50.120;8.698;2023-06-10T13:12:50;6.57;;;6.07;;
1569;SDS011;778;50.120;8.698;2023-06-10T13:15:21;6.93;;;6.43;;
1569;SDS011;778;50.120;8.698;2023-06-10T13:17:53;6.10;;;5.70;;
1569;SDS011;778;50.120;8.698;2023-06-10T13:20:21;6.37;;;5.77;;
1569;SDS011;778;50.120;8.698;2023-06-10T13:22:52;5.37;;;4.97;;
1569;SDS011;778;50.120;8.698;2023-06-10T13:25:21;5.77;;;5.27;;
1569;SDS011;778;50.120;8.698;2023-06-10T13:27:50;6.47;;;5.73;;
1569;SDS011;778;50.120;8.698;2023-06-10T13:30:19;6.20;;;5.80;;
1569;SDS011;778;50.120;8.698;2023-06-10T13:32:48;6.80;;;6.30;;
1569;SDS011;778;50.120;8.698;2023-06-10T13:35:18;7.30;;;6.40;;
1569;SDS011;778;50.120;8.698;2023-06-10T13:37:47;7.10;;;6.40;;
1569;SDS011;778;50.120;8.698;2023-06-10T13:40:18;8.40;;;7.07;;
1569;SDS011;778;50.120;8.698;2023-06-10T13:42:50;6.70;;;6.20;;
1569;SDS011;778;50.120;8.698;2023-06-10T13:45:21;7.43;;;6.90;;
1569;SDS011;778;50.120;8.698;2023-06-10T13:47:51;7.00;;;6.40;;
1569;SDS011;778;50.120;8.698;2023-06-10T13:50:20;6.03;;;5.57;;
1569;SDS011;778;50.120;8.698;2023-06-10T13:52:51;5.27;;;4.87;;
1569;SDS011;778;50.120;8.698;2023-06-10T13:55:22;5.93;;;5.50;;
1569;SDS011;778;50.120;8.698;2023-06-10T13:57:56;5.80;;;5.43;;
1569;SDS011;778;50.120;8.698;2023-06-10T14:00:39;5.63;;;4.93;;
1569;SDS011;778;50.120;8.698;2023-06-10T14:03:08;5.70;;;5.30;;
1569;SDS011;778;50.120;8.698;2023-06-10T14:05:47;5.37;;;5.07;;
1569;SDS011;778;50.120;8.698;2023-06-10T14:08:16;5.20;;;4.80;;
1569;SDS011;778;50.120;8.698;2023-06-10T14:10:46;9.50;;;5.27;;
1569;SDS011;778;50.120;8.698;2023-06-10T14:13:17;7.80;;;5.40;;
1569;SDS011;778;50.120;8.698;2023-06-10T14:15:46;5.77;;;5.27;;
1569;SDS011;778;50.120;8.698;2023-06-10T14:18:15;6.20;;;5.70;;
1569;SDS011;778;50.120;8.698;2023-06-10T14:20:44;4.77;;;4.40;;
1569;SDS011;778;50.120;8.698;2023-06-10T14:23:13;4.40;;;4.10;;
1569;SDS011;778;50.120;8.698;2023-06-10T14:25:41;5.80;;;5.40;;
1569;SDS011;778;50.120;8.698;2023-06-10T14:28:17;4.70;;;4.40;;
1569;SDS011;778;50.120;8.698;2023-06-10T14:30:46;6.43;;;4.77;;
1569;SDS011;778;50.120;8.698;2023-06-10T14:33:14;8.27;;;4.47;;
1569;SDS011;778;50.120;8.698;2023-06-10T14:35:44;5.17;;;4.77;;
1569;SDS011;778;50.120;8.698;2023-06-10T14:38:21;5.17;;;4.77;;
1569;SDS011;778;50.120;8.698;2023-06-10T14:40:50;5.47;;;4.90;;
1569;SDS011;778;50.120;8.698;2023-06-10T14:43:21;4.33;;;4.03;;
1569;SDS011;778;50.120;8.698;2023-06-10T14:45:50;6.03;;;4.90;;
1569;SDS011;778;50.120;8.698;2023-06-10T14:48:19;5.10;;;4.70;;
1569;SDS011;778;50.120;8.698;2023-06-10T14:50:48;6.20;;;5.70;;
1569;SDS011;778;50.120;8.698;2023-06-10T14:53:18;6.00;;;5.50;;
1569;SDS011;778;50.120;8.698;2023-06-10T14:55:47;4.93;;;4.53;;
1569;SDS011;778;50.120;8.698;2023-06-10T14:58:16;6.23;;;5.63;;
1569;SDS011;778;50.120;8.698;2023-06-10T15:00:50;5.50;;;4.90;;
1569;SDS011;778;50.120;8.698;2023-06-10T15:03:19;5.70;;;5.20;;
1569;SDS011;778;50.120;8.698;2023-06-10T15:05:52;5.13;;;4.73;;
1569;SDS011;778;50.120;8.698;2023-06-10T15:08:21;5.47;;;5.10;;
1569;SDS011;778;50.120;8.698;2023-06-10T15:10:50;5.40;;;5.00;;
1569;SDS011;778;50.120;8.698;2023-06-10T15:13:19;6.10;;;5.50;;
1569;SDS011;778;50.120;8.698;2023-06-10T15:15:49;5.23;;;4.70;;
1569;SDS011;778;50.120;8.698;2023-06-10T15:18:18;5.33;;;4.93;;
1569;SDS011;778;50.120;8.698;2023-06-10T15:20:47;5.63;;;5.17;;
1569;SDS011;778;50.120;8.698;2023-06-10T15:23:16;5.17;;;4.77;;
1569;SDS011;778;50.120;8.698;2023-06-10T15:25:45;5.77;;;5.10;;
1569;SDS011;778;50.120;8.698;2023-06-10T15:28:14;5.33;;;4.93;;
1569;SDS011;778;50.120;8.698;2023-06-10T15:30:45;5.13;;;4.40;;
1569;SDS011;778;50.120;8.698;2023-06-10T15:33:14;5.13;;;4.73;;
1569;SDS011;778;50.120;8.698;2023-06-10T15:35:43;4.50;;;4.20;;
1569;SDS011;778;50.120;8.698;2023-06-10T15:38:12;5.83;;;5.33;;
1569;SDS011;778;50.120;8.698;2023-06-10T15:40:41;8.00;;;5.30;;
1569;SDS011;778;50.120;8.698;2023-06-10T15:43:10;5.33;;;4.83;;
1569;SDS011;778;50.120;8.698;2023-06-10T15:45:40;5.37;;;4.97;;
1569;SDS011;778;50.120;8.698;2023-06-10T15:48:10;6.00;;;5.53;;
1569;SDS011;778;50.120;8.698;2023-06-10T15:50:39;5.43;;;5.10;;
1569;SDS011;778;50.120;8.698;2023-06-10T15:53:17;7.20;;;6.07;;